Time;durP1;ratioP1;P1;durP2;ratioP2;P2;SDS_P1;SDS_P2;PMS_P1;PMS_P2;Temp;Humidity;BMP_temperature;BMP_pressure;BME280_temperature;BME280_humidity;BME280_pressure;Samples;Min_cycle;Max_cycle;Signal;HPM_P1;HPM_P2
2023/02/25 00:01:46;;;;;;;;;;;;;;;3.63;100.00;95331.31;4994493;28;19957;-78
2023/02/25 00:04:12;;;;;;;;;;;;;;;3.66;100.00;95325.75;4977838;28;20356;-78
2023/02/25 00:06:38;;;;;;;;;;;;;;;3.61;100.00;95321.19;4994497;28;19956;-78
2023/02/25 00:09:05;;;;;;;;;;;;;;;3.54;100.00;95330.75;4995355;28;20028;-77
2023/02/25 00:11:31;;;;;;;;;;;;;;;3.43;100.00;95319.19;4993881;28;20419;-78
2023/02/25 00:13:57;;;;;;;;;;;;;;;3.34;100.00;95325.59;4994385;28;20036;-78
2023/02/25 00:16:23;;;;;;;;;;;;;;;3.38;100.00;95323.38;4995601;28;20394;-77
2023/02/25 00:18:53;;;;;;;;;;;;;;;3.45;100.00;95322.38;4994397;28;19961;-78
2023/02/25 00:21:19;;;;;;;;;;;;;;;3.53;100.00;95328.34;4994573;28;20313;-78
2023/02/25 00:23:46;;;;;;;;;;;;;;;3.60;100.00;95329.16;4992981;28;20029;-78
2023/02/25 00:26:12;;;;;;;;;;;;;;;3.63;100.00;95332.13;4983443;28;19953;-78
2023/02/25 00:28:39;;;;;;;;;;;;;;;3.66;100.00;95346.50;4993085;28;19972;-78
2023/02/25 00:31:13;;;;;;;;;;;;;;;3.61;100.00;95346.28;4994394;28;19957;-78
2023/02/25 00:33:40;;;;;;;;;;;;;;;3.58;100.00;95347.47;4985040;28;20469;-78
2023/02/25 00:36:07;;;;;;;;;;;;;;;3.55;100.00;95340.13;4995205;28;19956;-77
2023/02/25 00:38:35;;;;;;;;;;;;;;;3.55;100.00;95331.53;4994112;28;19952;-78
2023/02/25 00:41:10;;;;;;;;;;;;;;;3.52;100.00;95327.53;4931650;28;1792746;-78
2023/02/25 00:43:37;;;;;;;;;;;;;;;3.54;100.00;95319.59;4995515;28;19951;-77
2023/02/25 00:46:03;;;;;;;;;;;;;;;3.57;100.00;95325.16;4994698;28;19960;-77
2023/02/25 00:48:29;;;;;;;;;;;;;;;3.65;100.00;95329.31;4994690;28;19960;-78
2023/02/25 00:50:55;;;;;;;;;;;;;;;3.71;100.00;95346.66;4995093;28;19980;-77
2023/02/25 00:53:21;;;;;;;;;;;;;;;3.77;100.00;95347.66;4995935;28;19952;-77
2023/02/25 00:55:47;;;;;;;;;;;;;;;3.83;100.00;95354.63;4994813;28;19962;-78
2023/02/25 00:58:13;;;;;;;;;;;;;;;3.88;100.00;95351.44;4994952;28;19956;-78
2023/02/25 01:00:38;;;;;;;;;;;;;;;3.88;100.00;95328.09;4994770;28;19957;-78
2023/02/25 01:03:04;;;;;;;;;;;;;;;3.84;100.00;95338.06;4995764;28;19946;-78
2023/02/25 01:05:30;;;;;;;;;;;;;;;3.85;100.00;95339.69;4977671;28;19957;-78
2023/02/25 01:07:56;;;;;;;;;;;;;;;3.89;100.00;95351.25;4976763;28;19967;-78
2023/02/25 01:10:22;;;;;;;;;;;;;;;3.91;100.00;95343.28;4994103;28;19974;-79
2023/02/25 01:12:48;;;;;;;;;;;;;;;3.89;100.00;95334.91;4995242;28;19998;-78
2023/02/25 01:15:14;;;;;;;;;;;;;;;3.83;100.00;95337.28;4994503;28;19955;-78
2023/02/25 01:17:39;;;;;;;;;;;;;;;3.83;100.00;95352.84;4994349;28;19961;-78
2023/02/25 01:20:10;;;;;;;;;;;;;;;3.85;100.00;95357.84;4993456;28;19952;-78
2023/02/25 01:22:40;;;;;;;;;;;;;;;3.86;100.00;95369.78;4994397;28;19951;-78
2023/02/25 01:25:07;;;;;;;;;;;;;;;3.87;100.00;95376.59;4995309;28;19961;-78
2023/02/25 01:27:33;;;;;;;;;;;;;;;3.86;100.00;95360.22;4994375;28;19959;-78
2023/02/25 01:29:59;;;;;;;;;;;;;;;3.83;100.00;95354.63;4994064;28;20445;-79
2023/02/25 01:32:25;;;;;;;;;;;;;;;3.77;100.00;95358.81;4995448;28;20298;-78
2023/02/25 01:34:50;;;;;;;;;;;;;;;3.80;100.00;95355.84;4994232;28;20391;-78
2023/02/25 01:37:16;;;;;;;;;;;;;;;3.82;100.00;95351.25;4994226;28;19959;-78
2023/02/25 01:39:42;;;;;;;;;;;;;;;3.84;100.00;95359.63;4992873;28;19966;-78
2023/02/25 01:42:15;;;;;;;;;;;;;;;3.89;100.00;95374.59;4994758;28;19973;-78
2023/02/25 01:44:59;;;;;;;;;;;;;;;3.93;100.00;95372.38;4993877;28;19954;-78
2023/02/25 01:47:28;;;;;;;;;;;;;;;3.96;100.00;95370.16;4994085;28;19956;-78
2023/02/25 01:49:53;;;;;;;;;;;;;;;3.98;100.00;95373.34;4993894;28;19979;-78
2023/02/25 01:52:21;;;;;;;;;;;;;;;4.01;100.00;95374.75;4993811;28;20361;-77
2023/02/25 01:54:50;;;;;;;;;;;;;;;3.97;100.00;95371.78;4993597;28;19949;-78
2023/02/25 01:57:17;;;;;;;;;;;;;;;3.93;100.00;95370.59;4994801;28;19944;-78
2023/02/25 01:59:44;;;;;;;;;;;;;;;3.90;100.00;95368.38;4993002;28;19955;-78
2023/02/25 02:02:11;;;;;;;;;;;;;;;3.86;100.00;95373.19;4993681;28;19961;-79
2023/02/25 02:04:38;;;;;;;;;;;;;;;3.82;100.00;95369.41;4994641;28;19970;-78
2023/02/25 02:07:05;;;;;;;;;;;;;;;3.82;100.00;95373.78;4993792;28;19953;-77
2023/02/25 02:09:32;;;;;;;;;;;;;;;3.84;100.00;95385.56;4976661;28;19972;-78
2023/02/25 02:12:00;;;;;;;;;;;;;;;3.88;100.00;95398.91;4994451;28;19958;-78
2023/02/25 02:14:28;;;;;;;;;;;;;;;3.86;100.00;95399.13;4976304;28;19948;-78
2023/02/25 02:17:12;;;;;;;;;;;;;;;3.81;100.00;95404.09;4992732;28;19966;-78
2023/02/25 02:19:50;;;;;;;;;;;;;;;3.76;100.00;95414.28;4989691;28;19944;-78
2023/02/25 02:22:23;;;;;;;;;;;;;;;3.75;100.00;95399.72;4993239;28;19952;-78
2023/02/25 02:24:51;;;;;;;;;;;;;;;3.75;100.00;95394.53;4993583;28;19949;-78
2023/02/25 02:27:17;;;;;;;;;;;;;;;3.76;100.00;95395.31;4992637;28;19953;-78
2023/02/25 02:29:44;;;;;;;;;;;;;;;3.81;100.00;95379.97;4993428;28;19965;-78
2023/02/25 02:32:19;;;;;;;;;;;;;;;3.84;100.00;95366.59;4991330;28;19951;-78
2023/02/25 02:34:48;;;;;;;;;;;;;;;3.86;100.00;95373.19;4994131;28;19946;-78
2023/02/25 02:37:40;;;;;;;;;;;;;;;3.87;100.00;95371.41;4993105;28;19950;-78
2023/02/25 02:40:22;;;;;;;;;;;;;;;3.90;100.00;95362.41;4983717;28;19955;-78
2023/02/25 02:42:59;;;;;;;;;;;;;;;3.93;100.00;95374.97;4984285;28;19983;-78
2023/02/25 02:45:44;;;;;;;;;;;;;;;3.94;100.00;95379.94;4994668;28;19959;-78
2023/02/25 02:48:16;;;;;;;;;;;;;;;3.94;100.00;95382.53;4989871;28;19948;-78
2023/02/25 02:50:44;;;;;;;;;;;;;;;3.94;100.00;95395.50;4991036;28;19967;-78
2023/02/25 02:53:13;;;;;;;;;;;;;;;3.95;100.00;95388.53;4993332;28;19955;-78
2023/02/25 02:55:51;;;;;;;;;;;;;;;3.94;100.00;95400.69;4992905;28;20358;-78
2023/02/25 02:58:21;;;;;;;;;;;;;;;3.94;100.00;95402.50;4974963;28;19967;-78
2023/02/25 03:00:49;;;;;;;;;;;;;;;3.93;100.00;95400.94;4992130;28;19944;-78
2023/02/25 03:03:17;;;;;;;;;;;;;;;3.94;100.00;95407.69;4994264;28;19953;-78
2023/02/25 03:05:46;;;;;;;;;;;;;;;3.94;100.00;95400.69;5003759;28;19950;-78
2023/02/25 03:08:24;;;;;;;;;;;;;;;3.95;100.00;95410.09;4993309;28;19954;-78
2023/02/25 03:10:50;;;;;;;;;;;;;;;3.94;100.00;95399.91;4992680;28;19985;-78
2023/02/25 03:13:16;;;;;;;;;;;;;;;3.94;100.00;95402.50;4993407;28;20407;-77
2023/02/25 03:15:43;;;;;;;;;;;;;;;3.94;100.00;95400.69;4992869;28;20049;-78
2023/02/25 03:18:21;;;;;;;;;;;;;;;3.94;100.00;95398.09;4992877;28;19947;-78
2023/02/25 03:20:49;;;;;;;;;;;;;;;3.94;100.00;95410.28;4991550;28;19955;-78
2023/02/25 03:23:27;;;;;;;;;;;;;;;3.92;100.00;95404.50;4992930;28;19946;-78
2023/02/25 03:26:05;;;;;;;;;;;;;;;3.83;100.00;95415.06;4993957;28;19949;-78
2023/02/25 03:28:32;;;;;;;;;;;;;;;3.82;100.00;95417.88;4984289;28;19953;-77
2023/02/25 03:30:58;;;;;;;;;;;;;;;3.82;100.00;95412.69;4992453;28;19974;-77
2023/02/25 03:33:33;;;;;;;;;;;;;;;3.83;100.00;95409.88;4993088;28;19952;-77
2023/02/25 03:36:02;;;;;;;;;;;;;;;3.80;100.00;95401.72;4959281;28;19950;-80
2023/02/25 03:38:30;;;;;;;;;;;;;;;3.75;100.00;95406.72;4993767;28;19945;-78
2023/02/25 03:40:58;;;;;;;;;;;;;;;3.74;100.00;95408.50;4992334;28;19977;-77
2023/02/25 03:43:27;;;;;;;;;;;;;;;3.75;100.00;95412.69;4994533;28;19952;-78
2023/02/25 03:45:55;;;;;;;;;;;;;;;3.76;100.00;95411.69;4997270;28;19955;-78
2023/02/25 03:48:22;;;;;;;;;;;;;;;3.78;100.00;95417.47;4995220;28;19965;-78
2023/02/25 03:50:52;;;;;;;;;;;;;;;3.77;100.00;95418.47;4995845;28;19974;-78
2023/02/25 03:53:18;;;;;;;;;;;;;;;3.78;100.00;95419.25;4997173;28;19953;-78
2023/02/25 03:55:45;;;;;;;;;;;;;;;3.80;100.00;95422.44;4996094;28;19943;-78
2023/02/25 03:58:10;;;;;;;;;;;;;;;3.81;100.00;95429.25;4977605;28;19956;-78
2023/02/25 04:00:37;;;;;;;;;;;;;;;3.80;100.00;95425.88;4997089;28;19945;-78
2023/02/25 04:03:04;;;;;;;;;;;;;;;3.82;100.00;95428.22;4995970;28;19951;-78
2023/02/25 04:05:30;;;;;;;;;;;;;;;3.79;100.00;95434.63;4995640;28;20394;-78
2023/02/25 04:07:56;;;;;;;;;;;;;;;3.77;100.00;95434.03;4995920;28;20049;-78
2023/02/25 04:10:22;;;;;;;;;;;;;;;3.76;100.00;95439.41;4996514;28;20440;-78
2023/02/25 04:12:51;;;;;;;;;;;;;;;3.70;100.00;95437.63;4995567;28;20537;-78
2023/02/25 04:15:17;;;;;;;;;;;;;;;3.66;100.00;95438.03;4995644;28;19959;-78
2023/02/25 04:17:44;;;;;;;;;;;;;;;3.64;100.00;95434.81;4995824;28;19959;-82
2023/02/25 04:20:11;;;;;;;;;;;;;;;3.66;100.00;95442.41;4995656;28;19944;-78
2023/02/25 04:22:37;;;;;;;;;;;;;;;3.65;100.00;95446.81;4995696;28;20332;-78
2023/02/25 04:25:03;;;;;;;;;;;;;;;3.65;100.00;95453.75;4996303;28;20048;-78
2023/02/25 04:27:31;;;;;;;;;;;;;;;3.64;100.00;95452.19;4978521;28;19953;-78
2023/02/25 04:29:57;;;;;;;;;;;;;;;3.60;100.00;95459.56;4995434;28;19978;-78
2023/02/25 04:32:23;;;;;;;;;;;;;;;3.58;100.00;95455.56;4994960;28;20342;-78
2023/02/25 04:34:49;;;;;;;;;;;;;;;3.58;100.00;95451.19;4995016;28;20319;-78
2023/02/25 04:37:16;;;;;;;;;;;;;;;3.59;100.00;95459.75;4993297;28;19991;-78
2023/02/25 04:39:42;;;;;;;;;;;;;;;3.59;100.00;95451.97;4994790;28;19954;-78
2023/02/25 04:42:08;;;;;;;;;;;;;;;3.54;100.00;95449.19;4995706;28;19970;-78
2023/02/25 04:44:34;;;;;;;;;;;;;;;3.51;100.00;95447.78;4995961;28;19950;-78
2023/02/25 04:47:00;;;;;;;;;;;;;;;3.43;100.00;95433.22;4994900;28;20332;-78
2023/02/25 04:49:26;;;;;;;;;;;;;;;3.38;100.00;95437.38;4977443;28;19948;-78
2023/02/25 04:51:52;;;;;;;;;;;;;;;3.33;100.00;95434.59;4994990;28;20006;-78
2023/02/25 04:54:18;;;;;;;;;;;;;;;3.27;100.00;95449.13;4994962;28;20049;-78
2023/02/25 04:56:44;;;;;;;;;;;;;;;3.23;100.00;95450.50;4994951;28;19953;-78
2023/02/25 04:59:11;;;;;;;;;;;;;;;3.20;100.00;95436.16;4994437;28;19958;-78
2023/02/25 05:01:37;;;;;;;;;;;;;;;3.19;100.00;95449.31;4994573;28;19949;-78
2023/02/25 05:04:04;;;;;;;;;;;;;;;3.08;100.00;95442.91;4991448;28;19981;-78
2023/02/25 05:06:29;;;;;;;;;;;;;;;2.99;100.00;95452.66;4993539;28;19944;-78
2023/02/25 05:08:56;;;;;;;;;;;;;;;2.92;100.00;95464.78;4993715;28;20043;-78
2023/02/25 05:11:23;;;;;;;;;;;;;;;2.91;100.00;95467.56;4977194;28;20343;-78
2023/02/25 05:13:49;;;;;;;;;;;;;;;2.90;100.00;95463.38;4994544;28;19958;-78
2023/02/25 05:16:16;;;;;;;;;;;;;;;2.92;100.00;95454.44;4993745;28;19956;-78
2023/02/25 05:18:42;;;;;;;;;;;;;;;2.95;100.00;95453.25;4993389;28;19957;-78
2023/02/25 05:21:13;;;;;;;;;;;;;;;2.91;100.00;95445.06;4994418;28;19950;-78
2023/02/25 05:23:39;;;;;;;;;;;;;;;2.91;100.00;95468.34;4995235;28;20065;-78
2023/02/25 05:26:05;;;;;;;;;;;;;;;2.90;100.00;95460.78;4994311;28;19963;-78
2023/02/25 05:28:31;;;;;;;;;;;;;;;2.87;100.00;95459.38;4967735;28;20055;-78
2023/02/25 05:30:57;;;;;;;;;;;;;;;2.84;99.92;95459.78;4994112;28;19979;-78
2023/02/25 05:33:23;;;;;;;;;;;;;;;2.80;99.45;95458.56;4995260;28;19961;-78
2023/02/25 05:35:49;;;;;;;;;;;;;;;2.72;99.22;95453.56;4993144;28;20037;-79
2023/02/25 05:38:15;;;;;;;;;;;;;;;2.67;99.35;95454.13;4975496;28;19962;-78
2023/02/25 05:40:41;;;;;;;;;;;;;;;2.66;100.00;95472.44;4994881;28;19955;-78
2023/02/25 05:43:07;;;;;;;;;;;;;;;2.68;100.00;95480.81;4993911;28;19952;-78
2023/02/25 05:45:34;;;;;;;;;;;;;;;2.72;100.00;95482.03;4993464;28;19964;-78
2023/02/25 05:48:00;;;;;;;;;;;;;;;2.74;100.00;95478.25;4993002;28;19957;-80
2023/02/25 05:50:27;;;;;;;;;;;;;;;2.78;100.00;95489.81;4994749;28;20498;-78
2023/02/25 05:52:53;;;;;;;;;;;;;;;2.79;100.00;95500.97;4993733;28;19965;-78
2023/02/25 05:55:19;;;;;;;;;;;;;;;2.79;100.00;95494.03;4994774;28;19957;-78
2023/02/25 05:57:45;;;;;;;;;;;;;;;2.81;100.00;95493.81;4993036;28;20033;-78
2023/02/25 06:00:14;;;;;;;;;;;;;;;2.81;100.00;95491.22;4993055;28;19980;-78
2023/02/25 06:02:43;;;;;;;;;;;;;;;2.81;100.00;95492.03;4992905;28;19952;-77
2023/02/25 06:05:09;;;;;;;;;;;;;;;2.81;100.00;95489.44;4994498;28;19954;-77
2023/02/25 06:07:34;;;;;;;;;;;;;;;2.81;100.00;95486.88;4991612;28;19944;-77
2023/02/25 06:10:00;;;;;;;;;;;;;;;2.80;100.00;95479.28;4994286;28;19973;-77
2023/02/25 06:12:30;;;;;;;;;;;;;;;2.80;100.00;95472.31;4976401;28;19959;-78
2023/02/25 06:14:56;;;;;;;;;;;;;;;2.79;100.00;95478.50;4993373;28;19955;-76
2023/02/25 06:17:25;;;;;;;;;;;;;;;2.79;100.00;95472.50;4993236;28;19960;-77
2023/02/25 06:19:51;;;;;;;;;;;;;;;2.76;100.00;95484.03;4985708;28;19952;-77
2023/02/25 06:22:18;;;;;;;;;;;;;;;2.75;100.00;95485.03;4993236;28;20429;-77
2023/02/25 06:24:44;;;;;;;;;;;;;;;2.74;100.00;95495.59;4994442;28;19946;-77
2023/02/25 06:27:11;;;;;;;;;;;;;;;2.74;100.00;95493.78;4993153;28;19962;-77
2023/02/25 06:29:40;;;;;;;;;;;;;;;2.76;100.00;95507.34;4990964;28;19946;-78
2023/02/25 06:32:06;;;;;;;;;;;;;;;2.78;100.00;95513.13;4976733;28;19954;-77
2023/02/25 06:34:33;;;;;;;;;;;;;;;2.79;100.00;95508.75;4993450;28;20418;-78
2023/02/25 06:36:59;;;;;;;;;;;;;;;2.81;100.00;95525.69;4993182;28;19963;-78
2023/02/25 06:39:25;;;;;;;;;;;;;;;2.85;100.00;95526.09;4993618;28;20349;-78
2023/02/25 06:41:51;;;;;;;;;;;;;;;2.90;100.00;95528.94;4992943;28;20340;-77
2023/02/25 06:44:17;;;;;;;;;;;;;;;2.90;100.00;95518.56;4994156;28;19956;-77
2023/02/25 06:46:43;;;;;;;;;;;;;;;2.97;100.00;95534.91;4989732;28;19960;-78
2023/02/25 06:49:10;;;;;;;;;;;;;;;3.30;100.00;95510.13;4994416;28;20360;-77
2023/02/25 06:51:36;;;;;;;;;;;;;;;3.91;100.00;95506.66;4991593;28;19973;-78
2023/02/25 06:54:02;;;;;;;;;;;;;;;4.21;97.10;95481.09;4994136;28;20007;-78
2023/02/25 06:56:29;;;;;;;;;;;;;;;4.17;93.91;95475.50;4976904;28;20417;-77
2023/02/25 06:58:57;;;;;;;;;;;;;;;3.96;89.93;95450.56;4993900;28;20410;-78
2023/02/25 07:01:24;;;;;;;;;;;;;;;3.65;90.13;95464.13;4976616;28;20408;-78
2023/02/25 07:03:50;;;;;;;;;;;;;;;3.40;90.71;95467.31;4992814;28;19949;-77
2023/02/25 07:06:17;;;;;;;;;;;;;;;3.25;89.56;95464.06;4990840;28;19944;-79
2023/02/25 07:08:43;;;;;;;;;;;;;;;3.17;93.90;95497.94;4982518;28;19955;-78
2023/02/25 07:11:33;;;;;;;;;;;;;;;3.15;93.57;95485.19;4996529;28;19966;-78
2023/02/25 07:13:59;;;;;;;;;;;;;;;3.12;98.84;95515.84;4991510;28;20338;-78
2023/02/25 07:16:26;;;;;;;;;;;;;;;3.17;92.63;95477.19;4992643;28;19954;-78
2023/02/25 07:18:52;;;;;;;;;;;;;;;3.22;94.25;95498.16;4985154;28;19945;-78
2023/02/25 07:21:18;;;;;;;;;;;;;;;3.15;91.89;95481.78;4997650;28;19939;-78
2023/02/25 07:23:43;;;;;;;;;;;;;;;3.04;91.00;95480.56;4995530;28;19959;-78
2023/02/25 07:26:10;;;;;;;;;;;;;;;3.07;97.70;95513.84;4964125;28;20005;-78
2023/02/25 07:28:37;;;;;;;;;;;;;;;3.21;100.00;95531.03;4996185;28;19960;-77
2023/02/25 07:31:07;;;;;;;;;;;;;;;3.28;94.44;95494.00;4997271;28;19963;-78
2023/02/25 07:33:33;;;;;;;;;;;;;;;3.21;86.32;95434.38;4996726;28;20402;-77
2023/02/25 07:35:59;;;;;;;;;;;;;;;2.97;86.72;95446.06;4979206;28;20053;-77
2023/02/25 07:38:25;;;;;;;;;;;;;;;2.98;89.89;95476.97;4996158;28;19952;-77
2023/02/25 07:40:51;;;;;;;;;;;;;;;3.68;89.89;95471.53;4997398;28;20056;-77
2023/02/25 07:43:17;;;;;;;;;;;;;;;4.48;86.46;95448.91;4996506;28;20374;-78
2023/02/25 07:45:42;;;;;;;;;;;;;;;5.09;86.13;95447.66;4960042;28;19957;-79
2023/02/25 07:48:08;;;;;;;;;;;;;;;5.61;82.12;95407.75;4997111;28;19961;-78
2023/02/25 07:50:35;;;;;;;;;;;;;;;6.07;77.54;95364.97;4997094;28;20063;-78
2023/02/25 07:53:01;;;;;;;;;;;;;;;6.42;77.16;95365.16;4995704;28;19961;-78
2023/02/25 07:55:27;;;;;;;;;;;;;;;6.59;71.31;95315.09;4997205;28;19960;-78
2023/02/25 07:57:53;;;;;;;;;;;;;;;6.69;75.32;95350.00;4995872;28;20426;-78
2023/02/25 08:00:19;;;;;;;;;;;;;;;6.75;72.73;95337.91;4997073;28;20396;-79
2023/02/25 08:02:44;;;;;;;;;;;;;;;6.64;73.29;95349.09;4995590;28;19985;-77
2023/02/25 08:05:11;;;;;;;;;;;;;;;6.36;71.26;95323.59;4997119;28;20006;-78
2023/02/25 08:07:37;;;;;;;;;;;;;;;5.81;73.99;95384.97;4996935;28;19948;-78
2023/02/25 08:10:03;;;;;;;;;;;;;;;5.56;76.82;95418.00;4995833;28;19958;-78
2023/02/25 08:12:29;;;;;;;;;;;;;;;5.60;73.90;95390.56;4977653;28;19955;-77
2023/02/25 08:14:56;;;;;;;;;;;;;;;5.72;75.43;95401.88;4996943;28;20038;-77
2023/02/25 08:17:22;;;;;;;;;;;;;;;5.31;72.53;95394.56;4995522;28;20355;-77
2023/02/25 08:19:48;;;;;;;;;;;;;;;4.89;76.37;95441.75;4996542;28;19948;-78
2023/02/25 08:22:14;;;;;;;;;;;;;;;4.62;75.77;95428.06;4979423;28;19946;-78
2023/02/25 08:24:40;;;;;;;;;;;;;;;4.53;77.46;95455.28;4993704;28;20395;-78
2023/02/25 08:27:09;;;;;;;;;;;;;;;4.39;78.26;95459.69;4996000;28;19950;-78
2023/02/25 08:29:35;;;;;;;;;;;;;;;4.29;80.26;95470.50;4995819;28;20409;-78
2023/02/25 08:32:02;;;;;;;;;;;;;;;4.16;76.68;95442.78;4996426;28;19968;-78
2023/02/25 08:34:28;;;;;;;;;;;;;;;4.10;79.09;95464.34;4996488;28;19961;-78
2023/02/25 08:36:54;;;;;;;;;;;;;;;4.17;95.87;95547.38;4996087;28;20344;-77
2023/02/25 08:39:19;;;;;;;;;;;;;;;4.22;75.14;95405.66;4996090;28;19957;-79
2023/02/25 08:41:45;;;;;;;;;;;;;;;4.16;81.53;95465.31;5004358;28;20069;-78
2023/02/25 08:44:11;;;;;;;;;;;;;;;4.01;80.85;95455.97;4995987;28;19953;-77
2023/02/25 08:46:38;;;;;;;;;;;;;;;3.81;78.96;95443.00;4996135;28;19950;-77
2023/02/25 08:49:04;;;;;;;;;;;;;;;3.69;88.11;95512.00;4995854;28;19956;-76
2023/02/25 08:51:33;;;;;;;;;;;;;;;3.62;82.47;95472.31;4995725;28;20343;-76
2023/02/25 08:54:00;;;;;;;;;;;;;;;3.44;81.00;95465.09;4995989;28;19966;-76
2023/02/25 08:56:26;;;;;;;;;;;;;;;3.24;81.14;95470.25;4995763;28;19973;-76
2023/02/25 08:58:53;;;;;;;;;;;;;;;3.18;85.93;95510.69;4996199;28;19952;-76
2023/02/25 09:01:19;;;;;;;;;;;;;;;3.19;85.82;95504.53;4995779;28;19951;-75
2023/02/25 09:03:52;;;;;;;;;;;;;;;3.22;85.37;95498.16;4995834;28;20027;-75
2023/02/25 09:06:19;;;;;;;;;;;;;;;3.30;84.32;95489.41;4995717;28;19950;-76
2023/02/25 09:08:45;;;;;;;;;;;;;;;3.40;85.41;95505.38;4995473;28;19963;-76
2023/02/25 09:11:11;;;;;;;;;;;;;;;3.58;85.03;95495.25;4977972;28;20058;-76
2023/02/25 09:13:36;;;;;;;;;;;;;;;3.87;83.22;95472.53;4995459;28;19955;-76
2023/02/25 09:16:03;;;;;;;;;;;;;;;3.97;79.21;95426.25;4995592;28;20365;-76
2023/02/25 09:18:29;;;;;;;;;;;;;;;3.96;79.92;95453.16;4995398;28;20406;-77
2023/02/25 09:20:55;;;;;;;;;;;;;;;4.03;80.60;95463.53;4979681;28;20325;-77
2023/02/25 09:23:21;;;;;;;;;;;;;;;4.14;81.03;95462.16;4995685;28;19998;-76
2023/02/25 09:25:47;;;;;;;;;;;;;;;4.27;83.75;95482.88;4995302;28;19995;-76
2023/02/25 09:28:13;;;;;;;;;;;;;;;4.37;80.11;95449.53;4995285;28;19947;-77
2023/02/25 09:30:39;;;;;;;;;;;;;;;4.46;81.12;95463.88;4995069;28;20084;-76
2023/02/25 09:33:05;;;;;;;;;;;;;;;4.48;77.30;95420.34;4994557;28;20034;-77
2023/02/25 09:35:30;;;;;;;;;;;;;;;4.49;83.45;95475.66;4994600;28;19958;-76
2023/02/25 09:37:57;;;;;;;;;;;;;;;4.50;76.84;95416.75;4993713;28;19952;-77
2023/02/25 09:40:23;;;;;;;;;;;;;;;4.47;71.76;95371.22;4994442;28;19951;-76
2023/02/25 09:43:01;;;;;;;;;;;;;;;4.46;73.66;95393.00;4994829;28;19973;-77
2023/02/25 09:45:30;;;;;;;;;;;;;;;4.47;71.00;95363.44;4994494;28;19948;-76
2023/02/25 09:47:58;;;;;;;;;;;;;;;4.47;73.29;95397.19;4977449;28;19948;-77
2023/02/25 09:50:27;;;;;;;;;;;;;;;4.61;69.41;95377.16;4994802;28;19952;-76
2023/02/25 09:53:12;;;;;;;;;;;;;;;4.69;73.23;95397.72;4995447;28;20348;-76
2023/02/25 09:55:39;;;;;;;;;;;;;;;4.95;70.39;95368.19;4994744;28;19949;-75
2023/02/25 09:58:11;;;;;;;;;;;;;;;5.15;70.70;95388.88;4994962;28;19974;-76
2023/02/25 10:01:00;;;;;;;;;;;;;;;5.26;65.82;95358.81;4977209;28;19947;-76
2023/02/25 10:03:52;;;;;;;;;;;;;;;5.19;68.52;95403.03;4995000;28;19948;-76
2023/02/25 10:06:26;;;;;;;;;;;;;;;5.15;68.57;95382.88;4994584;28;19957;-75
2023/02/25 10:08:52;;;;;;;;;;;;;;;5.02;66.99;95378.56;4994726;28;19953;-76
2023/02/25 10:11:29;;;;;;;;;;;;;;;4.87;71.04;95431.59;4994341;28;19963;-76
2023/02/25 10:14:13;;;;;;;;;;;;;;;4.75;69.09;95435.03;4977679;28;19959;-75
2023/02/25 10:17:02;;;;;;;;;;;;;;;4.63;66.43;95424.50;4981639;28;19963;-75
2023/02/25 10:19:28;;;;;;;;;;;;;;;4.62;68.66;95441.88;4994305;28;19943;-75
2023/02/25 10:22:15;;;;;;;;;;;;;;;4.65;71.58;95457.03;4994281;28;19944;-75
2023/02/25 10:24:44;;;;;;;;;;;;;;;4.82;72.86;95454.00;4994653;28;19951;-75
2023/02/25 10:27:30;;;;;;;;;;;;;;;4.81;68.01;95421.25;4994311;28;20321;-75
2023/02/25 10:30:00;;;;;;;;;;;;;;;4.85;65.86;95423.22;4994359;28;19953;-75
2023/02/25 10:32:30;;;;;;;;;;;;;;;4.85;69.57;95458.75;4994569;28;19966;-75
2023/02/25 10:34:58;;;;;;;;;;;;;;;4.82;68.29;95439.19;4985197;28;19953;-75
2023/02/25 10:37:31;;;;;;;;;;;;;;;4.80;69.35;95454.19;4993542;28;19947;-75
2023/02/25 10:39:58;;;;;;;;;;;;;;;4.92;68.31;95441.34;4994239;28;19945;-75
2023/02/25 10:42:25;;;;;;;;;;;;;;;5.12;74.17;95466.44;4994633;28;19968;-75
2023/02/25 10:44:51;;;;;;;;;;;;;;;5.09;66.51;95442.47;4994297;28;19957;-75
2023/02/25 10:47:20;;;;;;;;;;;;;;;4.98;64.78;95417.16;4994173;28;21290;-75
2023/02/25 10:50:05;;;;;;;;;;;;;;;4.88;67.27;95438.38;4977401;28;19961;-75
2023/02/25 10:52:30;;;;;;;;;;;;;;;4.75;64.17;95424.66;4994013;28;19958;-75
2023/02/25 10:54:56;;;;;;;;;;;;;;;4.65;68.19;95443.25;4998458;28;19953;-76
2023/02/25 10:57:25;;;;;;;;;;;;;;;4.68;69.33;95448.03;4998173;28;19947;-75
2023/02/25 11:00:12;;;;;;;;;;;;;;;4.75;68.71;95429.84;4997891;28;19954;-75
2023/02/25 11:02:42;;;;;;;;;;;;;;;4.72;61.78;95392.09;4998272;28;19956;-75
2023/02/25 11:05:26;;;;;;;;;;;;;;;4.71;66.89;95423.47;4997845;28;20433;-75
2023/02/25 11:07:52;;;;;;;;;;;;;;;4.79;68.64;95429.22;4997957;28;19951;-75
2023/02/25 11:10:20;;;;;;;;;;;;;;;4.79;64.15;95411.06;4997949;28;20365;-76
2023/02/25 11:12:47;;;;;;;;;;;;;;;4.76;65.80;95414.03;4998152;28;20463;-76
2023/02/25 11:15:16;;;;;;;;;;;;;;;4.71;66.01;95423.47;4997867;28;19971;-75
2023/02/25 11:17:43;;;;;;;;;;;;;;;4.75;69.78;95440.25;4997583;28;19952;-76
2023/02/25 11:20:19;;;;;;;;;;;;;;;4.78;68.67;95439.81;4997561;28;19954;-76
2023/02/25 11:22:45;;;;;;;;;;;;;;;4.83;69.33;95443.41;4998322;28;19953;-75
2023/02/25 11:25:15;;;;;;;;;;;;;;;4.78;66.07;95434.63;4997623;28;19943;-75
2023/02/25 11:27:46;;;;;;;;;;;;;;;4.70;65.86;95424.47;4980102;28;19951;-75
2023/02/25 11:30:11;;;;;;;;;;;;;;;4.64;65.47;95426.88;4997423;28;19948;-75
2023/02/25 11:32:47;;;;;;;;;;;;;;;4.69;66.91;95439.25;4997459;28;20362;-75
2023/02/25 11:35:22;;;;;;;;;;;;;;;4.81;68.12;95442.81;4997567;28;19952;-75
2023/02/25 11:37:48;;;;;;;;;;;;;;;4.86;66.59;95427.38;4997601;28;19957;-75
2023/02/25 11:40:30;;;;;;;;;;;;;;;4.97;65.29;95423.34;4997814;28;19955;-75
2023/02/25 11:43:05;;;;;;;;;;;;;;;5.16;67.33;95431.25;4997242;28;19956;-75
2023/02/25 11:45:32;;;;;;;;;;;;;;;5.37;63.70;95406.72;4997557;28;20315;-76
2023/02/25 11:47:59;;;;;;;;;;;;;;;5.53;66.92;95419.22;4997352;28;19950;-74
2023/02/25 11:50:57;;;;;;;;;;;;;;;5.67;64.44;95397.31;4997290;28;19961;-75
2023/02/25 11:53:42;;;;;;;;;;;;;;;5.66;62.93;95394.91;4937466;28;19954;-75
2023/02/25 11:56:20;;;;;;;;;;;;;;;5.71;63.38;95408.06;4997148;28;19961;-75
2023/02/25 11:59:05;;;;;;;;;;;;;;;5.79;65.82;95423.41;4996213;28;19948;-75
2023/02/25 12:01:31;;;;;;;;;;;;;;;5.82;66.15;95427.41;4997011;28;19950;-75
2023/02/25 12:03:57;;;;;;;;;;;;;;;5.81;65.38;95420.59;4979096;28;19952;-75
2023/02/25 12:06:32;;;;;;;;;;;;;;;5.79;65.47;95422.63;4997015;28;19954;-75
2023/02/25 12:09:24;;;;;;;;;;;;;;;5.79;64.29;95405.19;4996878;28;19945;-75
2023/02/25 12:12:09;;;;;;;;;;;;;;;5.72;61.74;95394.06;4963417;28;19982;-75
2023/02/25 12:14:54;;;;;;;;;;;;;;;5.63;61.88;95392.75;4996553;28;19944;-75
2023/02/25 12:17:49;;;;;;;;;;;;;;;5.53;60.74;95397.63;4996241;28;19955;-75
2023/02/25 12:20:20;;;;;;;;;;;;;;;5.36;63.38;95412.94;4927144;28;19956;-75
2023/02/25 12:22:46;;;;;;;;;;;;;;;5.28;63.35;95414.78;4996471;28;19940;-75
2023/02/25 12:25:12;;;;;;;;;;;;;;;5.31;64.68;95421.34;4996994;28;19952;-75
2023/02/25 12:27:49;;;;;;;;;;;;;;;5.33;65.61;95418.53;4996595;28;19952;-75
2023/02/25 12:30:15;;;;;;;;;;;;;;;5.29;65.24;95420.75;4987279;28;19958;-75
2023/02/25 12:32:52;;;;;;;;;;;;;;;5.31;67.89;95447.34;4996180;28;19962;-76
2023/02/25 12:35:47;;;;;;;;;;;;;;;5.27;66.53;95434.00;4996438;28;20415;-75
2023/02/25 12:38:22;;;;;;;;;;;;;;;5.21;65.04;95431.44;4991717;28;20325;-76
2023/02/25 12:41:00;;;;;;;;;;;;;;;5.18;68.19;95444.81;4995883;28;19986;-76
2023/02/25 12:43:26;;;;;;;;;;;;;;;5.08;65.68;95427.91;4996371;28;19960;-76
2023/02/25 12:46:13;;;;;;;;;;;;;;;5.01;67.18;95447.13;4996098;28;19952;-75
2023/02/25 12:48:48;;;;;;;;;;;;;;;4.91;68.37;95446.75;4988137;28;19959;-76
2023/02/25 12:51:33;;;;;;;;;;;;;;;4.90;67.00;95434.78;4995900;28;19969;-76
2023/02/25 12:54:05;;;;;;;;;;;;;;;4.88;68.78;95451.34;4995911;28;19943;-76
2023/02/25 12:56:37;;;;;;;;;;;;;;;4.93;68.54;95444.75;4995788;28;20284;-75
2023/02/25 12:59:09;;;;;;;;;;;;;;;4.97;68.34;95451.91;4978572;28;20395;-75
2023/02/25 13:01:54;;;;;;;;;;;;;;;4.96;65.29;95426.16;4995684;28;19944;-75